sensor_id;sensor_type;location;lat;lon;timestamp;temperature;humidity
1091;DHT22;534;48.704;9.122;2023-03-01T04:02:17;2.60;70.00
1091;DHT22;534;48.704;9.122;2023-03-01T04:04:47;2.60;70.00
1091;DHT22;534;48.704;9.122;2023-03-01T04:07:15;2.60;70.00
1091;DHT22;534;48.704;9.122;2023-03-01T04:09:42;2.60;69.80
1091;DHT22;534;48.704;9.122;2023-03-01T04:12:09;2.60;70.00
1091;DHT22;534;48.704;9.122;2023-03-01T04:14:35;2.70;69.90
1091;DHT22;534;48.704;9.122;2023-03-01T04:17:02;2.60;69.80
1091;DHT22;534;48.704;9.122;2023-03-01T04:19:32;2.60;69.90
1091;DHT22;534;48.704;9.122;2023-03-01T04:22:01;2.60;70.10
1091;DHT22;534;48.704;9.122;2023-03-01T04:24:32;2.60;70.00
1091;DHT22;534;48.704;9.122;2023-03-01T04:26:59;2.70;69.70
1091;DHT22;534;48.704;9.122;2023-03-01T04:29:26;2.70;69.60
1091;DHT22;534;48.704;9.122;2023-03-01T04:31:52;2.80;69.60
1091;DHT22;534;48.704;9.122;2023-03-01T04:34:19;2.80;69.60
1091;DHT22;534;48.704;9.122;2023-03-01T04:36:47;2.80;69.70
1091;DHT22;534;48.704;9.122;2023-03-01T04:39:14;2.80;69.90
1091;DHT22;534;48.704;9.122;2023-03-01T04:41:40;2.80;69.80
1091;DHT22;534;48.704;9.122;2023-03-01T04:44:09;2.90;69.40
1091;DHT22;534;48.704;9.122;2023-03-01T04:46:36;2.90;69.60
1091;DHT22;534;48.704;9.122;2023-03-01T04:49:03;2.80;69.80
1091;DHT22;534;48.704;9.122;2023-03-01T04:51:31;2.80;69.80
1091;DHT22;534;48.704;9.122;2023-03-01T04:53:59;2.80;70.10
1091;DHT22;534;48.704;9.122;2023-03-01T04:56:26;2.90;70.00
1091;DHT22;534;48.704;9.122;2023-03-01T04:58:53;2.90;69.90
1091;DHT22;534;48.704;9.122;2023-03-01T05:01:21;3.00;69.90
1091;DHT22;534;48.704;9.122;2023-03-01T05:03:49;3.00;69.90
1091;DHT22;534;48.704;9.122;2023-03-01T05:06:17;3.10;69.80
1091;DHT22;534;48.704;9.122;2023-03-01T05:08:44;3.10;69.50
1091;DHT22;534;48.704;9.122;2023-03-01T05:11:12;2.90;69.70
1091;DHT22;534;48.704;9.122;2023-03-01T05:13:39;3.00;69.60
1091;DHT22;534;48.704;9.122;2023-03-01T05:16:08;3.00;69.60
1091;DHT22;534;48.704;9.122;2023-03-01T05:18:36;3.00;69.80
1091;DHT22;534;48.704;9.122;2023-03-01T05:21:05;3.10;69.30
1091;DHT22;534;48.704;9.122;2023-03-01T05:23:33;3.10;69.40
1091;DHT22;534;48.704;9.122;2023-03-01T05:26:00;3.10;69.80
1091;DHT22;534;48.704;9.122;2023-03-01T05:28:29;3.10;69.50
1091;DHT22;534;48.704;9.122;2023-03-01T05:30:57;3.00;69.70
1091;DHT22;534;48.704;9.122;2023-03-01T05:33:24;3.00;69.70
1091;DHT22;534;48.704;9.122;2023-03-01T05:35:51;3.10;69.70
1091;DHT22;534;48.704;9.122;2023-03-01T05:38:19;3.10;69.50
1091;DHT22;534;48.704;9.122;2023-03-01T05:40:48;3.20;69.30
1091;DHT22;534;48.704;9.122;2023-03-01T05:43:16;3.10;69.30
1091;DHT22;534;48.704;9.122;2023-03-01T05:45:44;3.00;70.00
1091;DHT22;534;48.704;9.122;2023-03-01T05:48:12;3.00;70.10
1091;DHT22;534;48.704;9.122;2023-03-01T05:50:40;3.00;70.10
1091;DHT22;534;48.704;9.122;2023-03-01T05:53:10;3.00;70.10
1091;DHT22;534;48.704;9.122;2023-03-01T05:55:38;3.00;70.20
1091;DHT22;534;48.704;9.122;2023-03-01T05:58:07;3.00;70.10
1091;DHT22;534;48.704;9.122;2023-03-01T06:00:35;3.10;70.20
1091;DHT22;534;48.704;9.122;2023-03-01T06:03:03;3.10;70.30
1091;DHT22;534;48.704;9.122;2023-03-01T06:05:30;3.10;70.00
1091;DHT22;534;48.704;9.122;2023-03-01T06:07:59;3.10;69.90
1091;DHT22;534;48.704;9.122;2023-03-01T06:10:26;3.20;69.90
1091;DHT22;534;48.704;9.122;2023-03-01T06:12:53;3.20;69.80
1091;DHT22;534;48.704;9.122;2023-03-01T06:15:20;3.10;69.90
1091;DHT22;534;48.704;9.122;2023-03-01T06:17:47;3.00;70.20
1091;DHT22;534;48.704;9.122;2023-03-01T06:20:17;3.00;70.30
1091;DHT22;534;48.704;9.122;2023-03-01T06:22:44;3.00;70.20
1091;DHT22;534;48.704;9.122;2023-03-01T06:25:13;3.10;70.00
1091;DHT22;534;48.704;9.122;2023-03-01T06:27:40;3.00;70.10
1091;DHT22;534;48.704;9.122;2023-03-01T06:30:08;2.80;70.90
1091;DHT22;534;48.704;9.122;2023-03-01T06:32:36;2.90;70.80
1091;DHT22;534;48.704;9.122;2023-03-01T06:35:03;3.00;70.50
1091;DHT22;534;48.704;9.122;2023-03-01T06:37:31;3.10;70.30
1091;DHT22;534;48.704;9.122;2023-03-01T06:39:58;3.20;69.90
1091;DHT22;534;48.704;9.122;2023-03-01T06:42:24;3.30;69.90
1091;DHT22;534;48.704;9.122;2023-03-01T06:44:51;3.60;69.60
1091;DHT22;534;48.704;9.122;2023-03-01T06:47:18;3.80;68.80
1091;DHT22;534;48.704;9.122;2023-03-01T06:49:44;4.20;67.70
1091;DHT22;534;48.704;9.122;2023-03-01T06:52:11;4.40;66.80
1091;DHT22;534;48.704;9.122;2023-03-01T06:54:39;4.90;65.60
1091;DHT22;534;48.704;9.122;2023-03-01T06:57:05;5.20;64.10
1091;DHT22;534;48.704;9.122;2023-03-01T06:59:32;5.80;63.30
1091;DHT22;534;48.704;9.122;2023-03-01T07:01:59;6.30;61.40
1091;DHT22;534;48.704;9.122;2023-03-01T07:04:25;7.10;60.30
1091;DHT22;534;48.704;9.122;2023-03-01T07:06:54;8.00;57.90
1091;DHT22;534;48.704;9.122;2023-03-01T07:09:21;8.90;55.90
1091;DHT22;534;48.704;9.122;2023-03-01T07:11:49;9.50;53.90
1091;DHT22;534;48.704;9.122;2023-03-01T07:14:16;10.10;51.50
1091;DHT22;534;48.704;9.122;2023-03-01T07:16:45;10.30;51.80
1091;DHT22;534;48.704;9.122;2023-03-01T07:19:11;11.30;49.30
1091;DHT22;534;48.704;9.122;2023-03-01T07:21:38;11.70;48.20
1091;DHT22;534;48.704;9.122;2023-03-01T07:24:06;11.60;47.90
1091;DHT22;534;48.704;9.122;2023-03-01T07:26:33;11.80;47.60
1091;DHT22;534;48.704;9.122;2023-03-01T07:29:02;12.60;47.00
1091;DHT22;534;48.704;9.122;2023-03-01T07:31:28;13.80;44.40
1091;DHT22;534;48.704;9.122;2023-03-01T07:33:55;13.70;44.00
1091;DHT22;534;48.704;9.122;2023-03-01T07:36:23;14.10;42.90
1091;DHT22;534;48.704;9.122;2023-03-01T07:38:50;14.20;43.40
1091;DHT22;534;48.704;9.122;2023-03-01T07:41:17;14.50;42.00
1091;DHT22;534;48.704;9.122;2023-03-01T07:43:44;15.10;41.50
1091;DHT22;534;48.704;9.122;2023-03-01T07:46:12;13.60;42.80
1091;DHT22;534;48.704;9.122;2023-03-01T07:48:39;14.40;42.40
1091;DHT22;534;48.704;9.122;2023-03-01T07:51:06;14.80;41.00
1091;DHT22;534;48.704;9.122;2023-03-01T07:53:33;15.10;41.60
1091;DHT22;534;48.704;9.122;2023-03-01T07:56:01;15.90;40.50
1091;DHT22;534;48.704;9.122;2023-03-01T07:58:28;16.90;38.80
1091;DHT22;534;48.704;9.122;2023-03-01T08:00:55;17.00;37.70
1091;DHT22;534;48.704;9.122;2023-03-01T08:03:23;17.30;38.10
1091;DHT22;534;48.704;9.122;2023-03-01T08:05:49;17.40;37.10
1091;DHT22;534;48.704;9.122;2023-03-01T08:08:16;16.60;38.40
1091;DHT22;534;48.704;9.122;2023-03-01T08:10:43;15.80;39.60
1091;DHT22;534;48.704;9.122;2023-03-01T08:13:09;14.90;40.30
1091;DHT22;534;48.704;9.122;2023-03-01T08:15:36;13.70;42.60
1091;DHT22;534;48.704;9.122;2023-03-01T08:18:03;12.90;43.70
1091;DHT22;534;48.704;9.122;2023-03-01T08:20:31;11.30;46.30
1091;DHT22;534;48.704;9.122;2023-03-01T08:22:58;10.30;48.60
1091;DHT22;534;48.704;9.122;2023-03-01T08:25:24;9.40;50.80
1091;DHT22;534;48.704;9.122;2023-03-01T08:27:51;8.50;52.60
1091;DHT22;534;48.704;9.122;2023-03-01T08:30:18;7.80;54.70
1091;DHT22;534;48.704;9.122;2023-03-01T08:32:45;7.30;55.90
1091;DHT22;534;48.704;9.122;2023-03-01T08:35:12;6.80;57.60
1091;DHT22;534;48.704;9.122;2023-03-01T08:37:40;6.40;58.10
1091;DHT22;534;48.704;9.122;2023-03-01T08:40:08;6.60;58.80
1091;DHT22;534;48.704;9.122;2023-03-01T08:42:35;6.20;59.00
1091;DHT22;534;48.704;9.122;2023-03-01T08:45:02;5.70;60.10
1091;DHT22;534;48.704;9.122;2023-03-01T08:47:29;5.50;61.30
1091;DHT22;534;48.704;9.122;2023-03-01T08:49:56;5.50;61.70
1091;DHT22;534;48.704;9.122;2023-03-01T08:52:23;5.40;62.10
1091;DHT22;534;48.704;9.122;2023-03-01T08:54:51;5.70;61.30
1091;DHT22;534;48.704;9.122;2023-03-01T08:57:18;5.50;61.50
1091;DHT22;534;48.704;9.122;2023-03-01T08:59:44;5.50;62.10
1091;DHT22;534;48.704;9.122;2023-03-01T09:02:13;5.50;62.40
1091;DHT22;534;48.704;9.122;2023-03-01T09:04:40;5.50;61.70
1091;DHT22;534;48.704;9.122;2023-03-01T09:07:07;5.20;62.50
1091;DHT22;534;48.704;9.122;2023-03-01T09:09:35;5.20;63.00
1091;DHT22;534;48.704;9.122;2023-03-01T09:12:03;5.00;62.60
1091;DHT22;534;48.704;9.122;2023-03-01T09:14:30;5.10;63.10
1091;DHT22;534;48.704;9.122;2023-03-01T09:16:57;5.00;63.60
1091;DHT22;534;48.704;9.122;2023-03-01T09:19:23;5.10;63.60
1091;DHT22;534;48.704;9.122;2023-03-01T09:21:50;5.00;63.70
1091;DHT22;534;48.704;9.122;2023-03-01T09:24:20;5.00;63.20
1091;DHT22;534;48.704;9.122;2023-03-01T09:26:47;4.50;64.10
1091;DHT22;534;48.704;9.122;2023-03-01T09:29:16;4.30;65.20
1091;DHT22;534;48.704;9.122;2023-03-01T09:31:42;4.40;65.00
1091;DHT22;534;48.704;9.122;2023-03-01T09:34:09;4.50;65.60
1091;DHT22;534;48.704;9.122;2023-03-01T09:36:36;4.60;65.00
1091;DHT22;534;48.704;9.122;2023-03-01T09:39:04;4.70;64.20
1091;DHT22;534;48.704;9.122;2023-03-01T09:41:45;4.70;63.80
1091;DHT22;534;48.704;9.122;2023-03-01T09:44:21;5.00;64.40
1091;DHT22;534;48.704;9.122;2023-03-01T09:46:48;4.90;64.10
1091;DHT22;534;48.704;9.122;2023-03-01T09:49:17;4.90;63.90
1091;DHT22;534;48.704;9.122;2023-03-01T09:51:56;4.80;63.90
1091;DHT22;534;48.704;9.122;2023-03-01T09:54:24;5.00;63.80
1091;DHT22;534;48.704;9.122;2023-03-01T09:57:05;4.90;64.40
1091;DHT22;534;48.704;9.122;2023-03-01T09:59:44;5.10;63.90
1091;DHT22;534;48.704;9.122;2023-03-01T10:02:26;5.50;63.90
1091;DHT22;534;48.704;9.122;2023-03-01T10:04:56;5.60;61.90
1091;DHT22;534;48.704;9.122;2023-03-01T10:07:32;5.50;62.20
1091;DHT22;534;48.704;9.122;2023-03-01T10:10:05;5.20;62.70
1091;DHT22;534;48.704;9.122;2023-03-01T10:15:05;5.30;62.60
1091;DHT22;534;48.704;9.122;2023-03-01T10:17:38;5.20;63.30
1091;DHT22;534;48.704;9.122;2023-03-01T10:20:16;5.20;62.70
1091;DHT22;534;48.704;9.122;2023-03-01T10:22:43;5.50;62.60
1091;DHT22;534;48.704;9.122;2023-03-01T10:25:15;5.50;62.30
1091;DHT22;534;48.704;9.122;2023-03-01T10:27:46;5.50;63.00
1091;DHT22;534;48.704;9.122;2023-03-01T10:30:21;5.40;62.60
1091;DHT22;534;48.704;9.122;2023-03-01T10:32:51;5.50;62.30
1091;DHT22;534;48.704;9.122;2023-03-01T10:35:20;5.60;61.80
1091;DHT22;534;48.704;9.122;2023-03-01T10:37:58;5.80;62.00
1091;DHT22;534;48.704;9.122;2023-03-01T10:40:25;5.80;61.40
1091;DHT22;534;48.704;9.122;2023-03-01T10:42:51;6.00;61.40
1091;DHT22;534;48.704;9.122;2023-03-01T10:45:31;6.20;60.80
1091;DHT22;534;48.704;9.122;2023-03-01T10:48:08;6.00;60.70
1091;DHT22;534;48.704;9.122;2023-03-01T10:50:37;5.90;61.00
1091;DHT22;534;48.704;9.122;2023-03-01T10:53:21;6.00;61.50
1091;DHT22;534;48.704;9.122;2023-03-01T10:55:57;6.10;60.70
1091;DHT22;534;48.704;9.122;2023-03-01T10:58:24;6.10;61.60
1091;DHT22;534;48.704;9.122;2023-03-01T11:00:54;6.30;61.00
1091;DHT22;534;48.704;9.122;2023-03-01T11:03:23;6.40;59.60
1091;DHT22;534;48.704;9.122;2023-03-01T11:06:05;6.30;60.50
1091;DHT22;534;48.704;9.122;2023-03-01T11:08:38;6.50;60.30
1091;DHT22;534;48.704;9.122;2023-03-01T11:11:15;6.50;59.70
1091;DHT22;534;48.704;9.122;2023-03-01T11:13:58;6.40;60.10
1091;DHT22;534;48.704;9.122;2023-03-01T11:16:34;6.50;60.50
1091;DHT22;534;48.704;9.122;2023-03-01T11:19:15;6.60;60.10
1091;DHT22;534;48.704;9.122;2023-03-01T11:21:47;6.80;59.40
1091;DHT22;534;48.704;9.122;2023-03-01T11:24:17;7.00;58.60
1091;DHT22;534;48.704;9.122;2023-03-01T11:26:50;7.00;58.40
1091;DHT22;534;48.704;9.122;2023-03-01T11:29:26;7.10;58.70
1091;DHT22;534;48.704;9.122;2023-03-01T11:31:59;7.10;58.50
1091;DHT22;534;48.704;9.122;2023-03-01T11:34:36;7.40;58.50
1091;DHT22;534;48.704;9.122;2023-03-01T11:37:24;7.60;57.80
1091;DHT22;534;48.704;9.122;2023-03-01T11:39:58;7.20;57.50
1091;DHT22;534;48.704;9.122;2023-03-01T11:42:42;7.10;58.20
1091;DHT22;534;48.704;9.122;2023-03-01T11:45:11;7.00;59.10
1091;DHT22;534;48.704;9.122;2023-03-01T11:47:51;7.00;59.10
1091;DHT22;534;48.704;9.122;2023-03-01T11:50:28;7.10;58.60
1091;DHT22;534;48.704;9.122;2023-03-01T11:53:05;7.20;58.40
1091;DHT22;534;48.704;9.122;2023-03-01T11:55:55;7.20;58.40
1091;DHT22;534;48.704;9.122;2023-03-01T11:58:50;7.30;57.80
1091;DHT22;534;48.704;9.122;2023-03-01T12:01:40;7.40;58.00
1091;DHT22;534;48.704;9.122;2023-03-01T12:04:32;7.60;56.90
1091;DHT22;534;48.704;9.122;2023-03-01T12:07:05;7.40;57.50
1091;DHT22;534;48.704;9.122;2023-03-01T12:12:42;7.60;57.30
1091;DHT22;534;48.704;9.122;2023-03-01T12:15:34;7.80;56.70
1091;DHT22;534;48.704;9.122;2023-03-01T12:18:28;7.90;57.00
1091;DHT22;534;48.704;9.122;2023-03-01T12:21:06;8.20;55.80
1091;DHT22;534;48.704;9.122;2023-03-01T12:23:56;8.30;55.50
1091;DHT22;534;48.704;9.122;2023-03-01T12:26:30;8.10;55.30
1091;DHT22;534;48.704;9.122;2023-03-01T12:29:19;8.30;56.10
1091;DHT22;534;48.704;9.122;2023-03-01T12:32:02;8.60;55.00
1091;DHT22;534;48.704;9.122;2023-03-01T12:34:42;8.60;55.10
1091;DHT22;534;48.704;9.122;2023-03-01T12:37:23;8.90;54.90
1091;DHT22;534;48.704;9.122;2023-03-01T12:40:02;8.80;55.00
1091;DHT22;534;48.704;9.122;2023-03-01T12:42:33;8.90;54.20
1091;DHT22;534;48.704;9.122;2023-03-01T12:45:18;9.20;53.80
1091;DHT22;534;48.704;9.122;2023-03-01T12:48:02;9.20;53.90
1091;DHT22;534;48.704;9.122;2023-03-01T12:50:38;9.00;53.90
1091;DHT22;534;48.704;9.122;2023-03-01T12:53:18;9.10;53.70
1091;DHT22;534;48.704;9.122;2023-03-01T12:55:46;8.90;54.50
1091;DHT22;534;48.704;9.122;2023-03-01T12:58:24;9.10;53.70
1091;DHT22;534;48.704;9.122;2023-03-01T13:01:01;9.30;54.40
1091;DHT22;534;48.704;9.122;2023-03-01T13:03:36;9.30;53.40
1091;DHT22;534;48.704;9.122;2023-03-01T13:06:10;9.90;53.90
1091;DHT22;534;48.704;9.122;2023-03-01T13:08:43;10.30;52.10
1091;DHT22;534;48.704;9.122;2023-03-01T13:11:17;10.50;51.20
1091;DHT22;534;48.704;9.122;2023-03-01T13:13:44;10.50;50.90
1091;DHT22;534;48.704;9.122;2023-03-01T13:16:22;10.40;51.50
1091;DHT22;534;48.704;9.122;2023-03-01T13:19:12;10.50;51.00
1091;DHT22;534;48.704;9.122;2023-03-01T13:21:40;10.40;51.40
1091;DHT22;534;48.704;9.122;2023-03-01T13:24:27;10.10;51.60
1091;DHT22;534;48.704;9.122;2023-03-01T13:27:22;10.00;52.00
1091;DHT22;534;48.704;9.122;2023-03-01T13:29:55;10.30;52.20
1091;DHT22;534;48.704;9.122;2023-03-01T13:32:25;10.20;52.50
1091;DHT22;534;48.704;9.122;2023-03-01T13:34:58;10.60;51.30
1091;DHT22;534;48.704;9.122;2023-03-01T13:37:34;10.60;51.60
1091;DHT22;534;48.704;9.122;2023-03-01T13:42:48;10.30;51.80
1091;DHT22;534;48.704;9.122;2023-03-01T13:45:20;10.60;51.40
1091;DHT22;534;48.704;9.122;2023-03-01T13:47:50;10.90;50.90
1091;DHT22;534;48.704;9.122;2023-03-01T13:50:20;11.20;50.20
1091;DHT22;534;48.704;9.122;2023-03-01T13:52:52;11.50;49.60
1091;DHT22;534;48.704;9.122;2023-03-01T13:55:24;12.00;49.00
1091;DHT22;534;48.704;9.122;2023-03-01T13:57:54;12.50;47.40
1091;DHT22;534;48.704;9.122;2023-03-01T14:00:28;13.50;46.60
1091;DHT22;534;48.704;9.122;2023-03-01T14:03:10;15.10;43.60
1091;DHT22;534;48.704;9.122;2023-03-01T14:05:38;16.00;41.50
1091;DHT22;534;48.704;9.122;2023-03-01T14:08:18;16.50;40.50
1091;DHT22;534;48.704;9.122;2023-03-01T14:10:53;17.70;39.40
1091;DHT22;534;48.704;9.122;2023-03-01T14:13:32;19.70;36.80
1091;DHT22;534;48.704;9.122;2023-03-01T14:16:12;20.40;35.20
1091;DHT22;534;48.704;9.122;2023-03-01T14:18:46;21.20;33.50
1091;DHT22;534;48.704;9.122;2023-03-01T14:21:17;21.40;33.00
1091;DHT22;534;48.704;9.122;2023-03-01T14:23:44;20.90;34.30
1091;DHT22;534;48.704;9.122;2023-03-01T14:26:13;21.30;33.40
1091;DHT22;534;48.704;9.122;2023-03-01T14:28:47;21.40;33.20
1091;DHT22;534;48.704;9.122;2023-03-01T14:31:34;21.70;33.30
1091;DHT22;534;48.704;9.122;2023-03-01T14:34:03;22.30;32.60
1091;DHT22;534;48.704;9.122;2023-03-01T14:36:33;22.60;32.10
1091;DHT22;534;48.704;9.122;2023-03-01T14:39:01;22.10;32.30
1091;DHT22;534;48.704;9.122;2023-03-01T14:41:34;22.20;32.50
1091;DHT22;534;48.704;9.122;2023-03-01T14:44:04;22.30;32.50
1091;DHT22;534;48.704;9.122;2023-03-01T14:46:34;22.20;32.10
1091;DHT22;534;48.704;9.122;2023-03-01T14:49:04;22.00;32.50
1091;DHT22;534;48.704;9.122;2023-03-01T14:51:36;22.00;32.60
1091;DHT22;534;48.704;9.122;2023-03-01T14:54:10;21.80;32.60
1091;DHT22;534;48.704;9.122;2023-03-01T14:56:46;21.70;32.90
1091;DHT22;534;48.704;9.122;2023-03-01T14:59:13;21.40;33.30
1091;DHT22;534;48.704;9.122;2023-03-01T15:01:41;20.70;33.90
1091;DHT22;534;48.704;9.122;2023-03-01T15:04:11;20.90;34.20
1091;DHT22;534;48.704;9.122;2023-03-01T15:06:38;20.80;33.80
1091;DHT22;534;48.704;9.122;2023-03-01T15:09:06;20.50;34.50
1091;DHT22;534;48.704;9.122;2023-03-01T15:11:33;20.70;34.50
1091;DHT22;534;48.704;9.122;2023-03-01T15:14:38;20.30;34.50
1091;DHT22;534;48.704;9.122;2023-03-01T15:17:20;20.30;34.60
1091;DHT22;534;48.704;9.122;2023-03-01T15:19:50;19.80;35.30
1091;DHT22;534;48.704;9.122;2023-03-01T15:22:17;18.80;36.20
1091;DHT22;534;48.704;9.122;2023-03-01T15:24:47;18.80;36.40
1091;DHT22;534;48.704;9.122;2023-03-01T15:27:17;18.30;36.90
1091;DHT22;534;48.704;9.122;2023-03-01T15:29:49;17.50;37.60
1091;DHT22;534;48.704;9.122;2023-03-01T15:32:26;16.80;39.10
1091;DHT22;534;48.704;9.122;2023-03-01T15:34:53;16.40;39.90
1091;DHT22;534;48.704;9.122;2023-03-01T15:37:39;15.80;40.90
1091;DHT22;534;48.704;9.122;2023-03-01T15:40:19;15.10;42.30
1091;DHT22;534;48.704;9.122;2023-03-01T15:42:46;14.60;43.10
1091;DHT22;534;48.704;9.122;2023-03-01T15:45:23;13.80;44.40
1091;DHT22;534;48.704;9.122;2023-03-01T15:47:53;13.10;45.50
1091;DHT22;534;48.704;9.122;2023-03-01T15:50:25;12.60;46.50
1091;DHT22;534;48.704;9.122;2023-03-01T15:52:52;12.00;47.90
1091;DHT22;534;48.704;9.122;2023-03-01T15:55:20;11.20;49.60
1091;DHT22;534;48.704;9.122;2023-03-01T15:57:48;10.90;50.40
1091;DHT22;534;48.704;9.122;2023-03-01T16:00:16;10.70;51.00
1091;DHT22;534;48.704;9.122;2023-03-01T16:02:44;10.40;51.60
1091;DHT22;534;48.704;9.122;2023-03-01T16:05:19;10.30;52.10
1091;DHT22;534;48.704;9.122;2023-03-01T16:07:46;10.10;52.50
1091;DHT22;534;48.704;9.122;2023-03-01T16:10:13;9.70;53.20
1091;DHT22;534;48.704;9.122;2023-03-01T16:12:40;9.30;54.00
1091;DHT22;534;48.704;9.122;2023-03-01T16:15:14;9.10;54.50
1091;DHT22;534;48.704;9.122;2023-03-01T16:17:44;8.90;54.90
1091;DHT22;534;48.704;9.122;2023-03-01T16:20:11;8.60;55.40
1091;DHT22;534;48.704;9.122;2023-03-01T16:22:41;8.40;55.70
1091;DHT22;534;48.704;9.122;2023-03-01T16:25:09;8.20;55.90
1091;DHT22;534;48.704;9.122;2023-03-01T16:27:35;8.10;56.50
1091;DHT22;534;48.704;9.122;2023-03-01T16:30:03;8.10;56.40
1091;DHT22;534;48.704;9.122;2023-03-01T16:32:30;8.10;56.20
1091;DHT22;534;48.704;9.122;2023-03-01T16:34:58;8.10;56.20
1091;DHT22;534;48.704;9.122;2023-03-01T16:37:24;8.10;56.40
1091;DHT22;534;48.704;9.122;2023-03-01T16:39:51;7.90;56.50
1091;DHT22;534;48.704;9.122;2023-03-01T16:42:18;7.90;56.80
1091;DHT22;534;48.704;9.122;2023-03-01T16:44:45;7.70;57.00
1091;DHT22;534;48.704;9.122;2023-03-01T16:47:11;7.60;57.40
1091;DHT22;534;48.704;9.122;2023-03-01T16:49:38;7.60;57.10
1091;DHT22;534;48.704;9.122;2023-03-01T16:52:06;7.60;57.30
1091;DHT22;534;48.704;9.122;2023-03-01T16:54:32;7.60;57.10
1091;DHT22;534;48.704;9.122;2023-03-01T16:57:00;7.60;57.10
1091;DHT22;534;48.704;9.122;2023-03-01T16:59:27;7.70;57.10
1091;DHT22;534;48.704;9.122;2023-03-01T17:01:53;7.60;57.00
1091;DHT22;534;48.704;9.122;2023-03-01T17:04:20;7.80;56.90
1091;DHT22;534;48.704;9.122;2023-03-01T17:06:47;7.70;56.90
1091;DHT22;534;48.704;9.122;2023-03-01T17:09:15;7.80;57.00
1091;DHT22;534;48.704;9.122;2023-03-01T17:11:43;7.70;56.80
1091;DHT22;534;48.704;9.122;2023-03-01T17:14:09;7.70;56.90
1091;DHT22;534;48.704;9.122;2023-03-01T17:16:36;7.80;56.70
1091;DHT22;534;48.704;9.122;2023-03-01T17:19:03;7.70;56.90
1091;DHT22;534;48.704;9.122;2023-03-01T17:21:29;7.80;56.80
1091;DHT22;534;48.704;9.122;2023-03-01T17:23:56;7.90;56.70
1091;DHT22;534;48.704;9.122;2023-03-01T17:26:24;7.80;56.70
1091;DHT22;534;48.704;9.122;2023-03-01T17:28:53;7.60;57.20
1091;DHT22;534;48.704;9.122;2023-03-01T17:31:21;7.70;57.10
1091;DHT22;534;48.704;9.122;2023-03-01T17:33:48;7.80;57.00
1091;DHT22;534;48.704;9.122;2023-03-01T17:36:16;7.70;57.10
1091;DHT22;534;48.704;9.122;2023-03-01T17:38:43;7.70;56.90
1091;DHT22;534;48.704;9.122;2023-03-01T17:41:11;7.80;56.90
1091;DHT22;534;48.704;9.122;2023-03-01T17:43:40;7.80;56.90
1091;DHT22;534;48.704;9.122;2023-03-01T17:46:07;7.80;56.80
1091;DHT22;534;48.704;9.122;2023-03-01T17:48:34;7.80;57.00
1091;DHT22;534;48.704;9.122;2023-03-01T17:51:05;7.70;56.90
1091;DHT22;534;48.704;9.122;2023-03-01T17:53:32;7.80;56.80
1091;DHT22;534;48.704;9.122;2023-03-01T17:56:00;7.90;56.80
1091;DHT22;534;48.704;9.122;2023-03-01T17:58:27;8.00;56.80
1091;DHT22;534;48.704;9.122;2023-03-01T18:00:55;8.10;56.70
1091;DHT22;534;48.704;9.122;2023-03-01T18:03:21;8.10;56.70
1091;DHT22;534;48.704;9.122;2023-03-01T18:05:48;8.00;56.90
1091;DHT22;534;48.704;9.122;2023-03-01T18:08:15;8.10;56.80
1091;DHT22;534;48.704;9.122;2023-03-01T18:10:41;8.10;56.70
1091;DHT22;534;48.704;9.122;2023-03-01T18:13:08;8.10;56.70
1091;DHT22;534;48.704;9.122;2023-03-01T18:15:39;8.10;56.50
1091;DHT22;534;48.704;9.122;2023-03-01T18:18:07;8.00;56.80
1091;DHT22;534;48.704;9.122;2023-03-01T18:20:33;7.90;57.10
1091;DHT22;534;48.704;9.122;2023-03-01T18:23:00;7.90;57.20
1091;DHT22;534;48.704;9.122;2023-03-01T18:25:27;7.80;57.30
1091;DHT22;534;48.704;9.122;2023-03-01T18:27:53;7.80;57.20
1091;DHT22;534;48.704;9.122;2023-03-01T18:30:20;7.80;57.30
1091;DHT22;534;48.704;9.122;2023-03-01T18:32:47;7.80;57.40
1091;DHT22;534;48.704;9.122;2023-03-01T18:35:21;7.70;57.50
1091;DHT22;534;48.704;9.122;2023-03-01T18:37:48;7.70;57.50
1091;DHT22;534;48.704;9.122;2023-03-01T18:40:15;7.70;57.50
1091;DHT22;534;48.704;9.122;2023-03-01T18:42:42;7.80;57.40
1091;DHT22;534;48.704;9.122;2023-03-01T18:45:09;7.80;57.40
1091;DHT22;534;48.704;9.122;2023-03-01T18:47:36;7.70;57.50
1091;DHT22;534;48.704;9.122;2023-03-01T18:50:03;7.70;57.40
1091;DHT22;534;48.704;9.122;2023-03-01T18:52:31;7.70;57.50
1091;DHT22;534;48.704;9.122;2023-03-01T18:54:58;7.70;57.50
1091;DHT22;534;48.704;9.122;2023-03-01T18:57:25;7.70;57.50
1091;DHT22;534;48.704;9.122;2023-03-01T18:59:51;7.70;57.70
1091;DHT22;534;48.704;9.122;2023-03-01T19:02:18;7.70;57.60
1091;DHT22;534;48.704;9.122;2023-03-01T19:04:44;7.70;57.70
1091;DHT22;534;48.704;9.122;2023-03-01T19:07:11;7.70;57.70
1091;DHT22;534;48.704;9.122;2023-03-01T19:09:39;7.60;58.00
1091;DHT22;534;48.704;9.122;2023-03-01T19:12:06;7.60;58.00
1091;DHT22;534;48.704;9.122;2023-03-01T19:14:33;7.60;58.00
1091;DHT22;534;48.704;9.122;2023-03-01T19:17:00;7.60;58.00
1091;DHT22;534;48.704;9.122;2023-03-01T19:19:26;7.60;58.10
1091;DHT22;534;48.704;9.122;2023-03-01T19:21:53;7.50;58.20
1091;DHT22;534;48.704;9.122;2023-03-01T19:24:20;7.50;58.20
1091;DHT22;534;48.704;9.122;2023-03-01T19:26:48;7.50;58.30
1091;DHT22;534;48.704;9.122;2023-03-01T19:29:14;7.50;58.30
1091;DHT22;534;48.704;9.122;2023-03-01T19:31:42;7.50;58.40
1091;DHT22;534;48.704;9.122;2023-03-01T19:34:09;7.50;58.30
1091;DHT22;534;48.704;9.122;2023-03-01T19:36:35;7.50;58.30
1091;DHT22;534;48.704;9.122;2023-03-01T19:39:04;7.40;58.30
1091;DHT22;534;48.704;9.122;2023-03-01T19:41:31;7.40;58.40
1091;DHT22;534;48.704;9.122;2023-03-01T19:43:59;7.30;58.50
1091;DHT22;534;48.704;9.122;2023-03-01T19:46:29;7.30;58.60
1091;DHT22;534;48.704;9.122;2023-03-01T19:48:55;7.30;58.70
1091;DHT22;534;48.704;9.122;2023-03-01T19:51:24;7.30;58.80
1091;DHT22;534;48.704;9.122;2023-03-01T19:53:51;7.30;58.90
1091;DHT22;534;48.704;9.122;2023-03-01T19:56:18;7.30;58.80
1091;DHT22;534;48.704;9.122;2023-03-01T19:58:45;7.30;58.80
1091;DHT22;534;48.704;9.122;2023-03-01T20:01:17;7.20;58.90
1091;DHT22;534;48.704;9.122;2023-03-01T20:03:44;7.20;59.10
1091;DHT22;534;48.704;9.122;2023-03-01T20:06:13;7.20;59.10
1091;DHT22;534;48.704;9.122;2023-03-01T20:08:40;7.10;59.40
1091;DHT22;534;48.704;9.122;2023-03-01T20:11:10;7.10;59.40
1091;DHT22;534;48.704;9.122;2023-03-01T20:13:37;7.10;59.40
1091;DHT22;534;48.704;9.122;2023-03-01T20:16:04;7.10;59.60
1091;DHT22;534;48.704;9.122;2023-03-01T20:18:32;7.10;60.00
1091;DHT22;534;48.704;9.122;2023-03-01T20:21:00;7.20;59.80
1091;DHT22;534;48.704;9.122;2023-03-01T20:23:27;7.20;59.80
1091;DHT22;534;48.704;9.122;2023-03-01T20:26:01;7.20;60.00
1091;DHT22;534;48.704;9.122;2023-03-01T20:28:28;7.20;59.80
1091;DHT22;534;48.704;9.122;2023-03-01T20:31:02;7.20;59.90
1091;DHT22;534;48.704;9.122;2023-03-01T20:33:29;7.10;60.10
1091;DHT22;534;48.704;9.122;2023-03-01T20:35:57;7.10;60.30
1091;DHT22;534;48.704;9.122;2023-03-01T20:38:24;7.00;60.50
1091;DHT22;534;48.704;9.122;2023-03-01T20:40:56;7.00;60.90
1091;DHT22;534;48.704;9.122;2023-03-01T20:43:23;7.00;61.00
1091;DHT22;534;48.704;9.122;2023-03-01T20:45:50;6.90;61.20
1091;DHT22;534;48.704;9.122;2023-03-01T20:48:17;6.80;61.50
1091;DHT22;534;48.704;9.122;2023-03-01T20:50:43;6.70;61.90
1091;DHT22;534;48.704;9.122;2023-03-01T20:53:11;6.70;62.10
1091;DHT22;534;48.704;9.122;2023-03-01T20:55:38;6.60;62.40
1091;DHT22;534;48.704;9.122;2023-03-01T20:58:05;6.40;63.20